createdAt,value
2018-01-02T00:00:07.286Z,18.73
2018-01-02T00:02:34.888Z,17.23
2018-01-02T00:05:02.407Z,16.57
2018-01-02T00:07:29.948Z,18.20
2018-01-02T00:09:57.545Z,15.10
2018-01-02T00:12:25.062Z,16.33
2018-01-02T00:14:52.578Z,17.63
2018-01-02T00:17:20.142Z,15.37
2018-01-02T00:19:47.663Z,16.10
2018-01-02T00:22:15.233Z,13.83
2018-01-02T00:24:43.518Z,15.20
2018-01-02T00:27:11.134Z,14.57
2018-01-02T00:29:38.643Z,16.00
2018-01-02T00:32:06.163Z,16.70
2018-01-02T00:34:33.700Z,16.10
2018-01-02T00:37:01.317Z,12.93
2018-01-02T00:39:28.877Z,14.03
2018-01-02T00:41:56.415Z,14.93
2018-01-02T00:44:23.975Z,12.17
2018-01-02T00:46:51.527Z,11.00
2018-01-02T00:49:19.078Z,10.23
2018-01-02T00:51:46.685Z,9.03
2018-01-02T00:54:14.231Z,9.93
2018-01-02T00:56:41.767Z,7.43
2018-01-02T00:59:09.359Z,7.97
2018-01-02T01:01:36.920Z,9.37
2018-01-02T01:04:04.433Z,6.97
2018-01-02T01:06:31.959Z,6.67
2018-01-02T01:08:59.496Z,6.57
2018-01-02T01:11:27.034Z,5.87
2018-01-02T01:13:54.599Z,6.03
2018-01-02T01:16:22.251Z,6.03
2018-01-02T01:18:49.799Z,5.60
2018-01-02T01:21:17.367Z,6.67
2018-01-02T01:23:45.051Z,4.97
2018-01-02T01:26:12.588Z,4.50
2018-01-02T01:28:40.156Z,5.13
2018-01-02T01:31:07.694Z,4.40
2018-01-02T01:33:35.234Z,5.43
2018-01-02T01:36:02.842Z,4.17
2018-01-02T01:38:30.411Z,3.50
2018-01-02T01:40:57.914Z,3.97
2018-01-02T01:43:25.429Z,3.60
2018-01-02T01:45:53.009Z,3.50
2018-01-02T01:48:20.522Z,3.73
2018-01-02T01:50:48.070Z,3.73
2018-01-02T01:53:15.636Z,3.50
2018-01-02T01:55:43.151Z,3.57
2018-01-02T01:58:10.710Z,4.80
2018-01-02T02:00:38.220Z,3.50
2018-01-02T02:03:05.727Z,3.20
2018-01-02T02:05:33.296Z,3.40
2018-01-02T02:08:00.831Z,3.17
2018-01-02T02:10:28.348Z,2.90
2018-01-02T02:12:55.870Z,3.50
2018-01-02T02:15:23.437Z,3.80
2018-01-02T02:17:50.975Z,3.37
2018-01-02T02:20:18.584Z,3.50
2018-01-02T02:22:46.313Z,4.20
2018-01-02T02:25:14.091Z,4.80
2018-01-02T02:27:41.640Z,4.47
2018-01-02T02:30:09.239Z,3.93
2018-01-02T02:32:36.840Z,4.40
2018-01-02T02:35:04.382Z,4.97
2018-01-02T02:37:31.899Z,5.33
2018-01-02T02:39:59.483Z,5.70
2018-01-02T02:42:27.002Z,5.87
2018-01-02T02:44:54.540Z,6.73
2018-01-02T02:47:22.114Z,5.60
2018-01-02T02:49:49.623Z,5.13
2018-01-02T02:52:17.190Z,7.07
2018-01-02T02:54:44.724Z,6.53
2018-01-02T02:57:12.281Z,7.07
2018-01-02T02:59:39.849Z,7.47
2018-01-02T03:02:07.384Z,7.30
2018-01-02T03:04:34.890Z,6.67
2018-01-02T03:07:02.584Z,6.60
2018-01-02T03:09:30.105Z,9.00
2018-01-02T03:11:57.644Z,7.57
2018-01-02T03:14:25.155Z,7.80
2018-01-02T03:16:52.728Z,8.63
2018-01-02T03:19:20.226Z,7.53
2018-01-02T03:21:47.775Z,9.37
2018-01-02T03:24:15.366Z,9.70
2018-01-02T03:26:42.888Z,9.70
2018-01-02T03:29:10.466Z,9.60
2018-01-02T03:31:38.003Z,9.23
2018-01-02T03:34:05.610Z,9.23
2018-01-02T03:36:33.147Z,10.97
2018-01-02T03:39:00.705Z,11.53
2018-01-02T03:41:28.267Z,9.70
2018-01-02T03:43:55.807Z,11.70
2018-01-02T03:46:23.329Z,13.20
2018-01-02T03:48:50.891Z,11.30
2018-01-02T03:51:18.445Z,14.17
2018-01-02T03:53:46.015Z,12.00
2018-01-02T03:56:13.580Z,12.83
2018-01-02T03:58:41.119Z,13.07
2018-01-02T04:01:08.683Z,13.27
2018-01-02T04:03:36.231Z,12.70
2018-01-02T04:06:03.843Z,16.10
2018-01-02T04:08:31.398Z,12.80
2018-01-02T04:10:58.961Z,13.33
2018-01-02T04:13:26.503Z,12.57
2018-01-02T04:15:54.020Z,15.03
2018-01-02T04:18:21.613Z,13.30
2018-01-02T04:20:49.122Z,15.67
2018-01-02T04:23:16.634Z,15.13
2018-01-02T04:25:44.196Z,17.10
2018-01-02T04:28:11.755Z,17.07
2018-01-02T04:30:39.357Z,14.37
2018-01-02T04:33:06.905Z,15.10
2018-01-02T04:35:34.490Z,15.40
2018-01-02T04:38:02.107Z,15.70
2018-01-02T04:40:29.670Z,15.87
2018-01-02T04:42:57.245Z,14.30
2018-01-02T04:45:24.834Z,16.40
2018-01-02T04:47:52.396Z,16.03
2018-01-02T04:50:19.916Z,15.70
2018-01-02T04:52:47.457Z,15.53
2018-01-02T04:55:15.051Z,16.13
2018-01-02T04:57:42.627Z,14.80
2018-01-02T05:00:10.147Z,15.90
2018-01-02T05:02:37.794Z,14.77
2018-01-02T05:05:05.380Z,13.37
2018-01-02T05:07:33.252Z,13.67
2018-01-02T05:10:00.808Z,13.67
2018-01-02T05:12:28.338Z,12.70
2018-01-02T05:14:55.927Z,15.80
2018-01-02T05:17:23.439Z,15.03
2018-01-02T05:19:50.951Z,14.90
2018-01-02T05:22:18.594Z,14.90
2018-01-02T05:24:46.149Z,15.97
2018-01-02T05:27:13.695Z,15.50
2018-01-02T05:29:41.381Z,15.47
2018-01-02T05:32:09.201Z,16.07
2018-01-02T05:34:36.755Z,17.20
2018-01-02T05:37:04.275Z,15.17
2018-01-02T05:39:31.889Z,16.67
2018-01-02T05:41:59.466Z,15.37
2018-01-02T05:44:27.028Z,17.73
2018-01-02T05:46:54.604Z,16.00
2018-01-02T05:49:22.152Z,19.40
2018-01-02T05:51:49.685Z,15.83
2018-01-02T05:54:17.280Z,16.03
2018-01-02T05:56:44.827Z,17.40
2018-01-02T05:59:12.400Z,16.77
2018-01-02T06:01:40.110Z,14.20
2018-01-02T06:04:07.663Z,18.20
2018-01-02T06:06:35.188Z,15.93
2018-01-02T06:09:02.800Z,15.33
2018-01-02T06:11:30.383Z,14.87
2018-01-02T06:13:58.066Z,16.40
2018-01-02T06:16:25.587Z,14.53
2018-01-02T06:18:53.136Z,16.57
2018-01-02T06:21:20.749Z,16.40
2018-01-02T06:23:48.315Z,15.60
2018-01-02T06:26:15.831Z,17.07
2018-01-02T06:28:43.510Z,15.57
2018-01-02T06:31:11.078Z,16.40
2018-01-02T06:33:38.611Z,15.30
2018-01-02T06:36:06.234Z,17.07
2018-01-02T06:38:33.903Z,16.23
2018-01-02T06:41:01.445Z,18.23
2018-01-02T06:43:29.024Z,15.07
2018-01-02T06:45:56.548Z,17.23
2018-01-02T06:48:24.203Z,15.70
2018-01-02T06:50:51.736Z,15.90
2018-01-02T06:53:19.346Z,16.17
2018-01-02T06:55:46.913Z,17.07
2018-01-02T06:58:14.468Z,15.90
2018-01-02T07:00:42.057Z,16.87
2018-01-02T07:03:09.667Z,15.70
2018-01-02T07:05:37.201Z,18.67
2018-01-02T07:08:04.890Z,18.47
2018-01-02T07:10:32.486Z,16.20
2018-01-02T07:13:00.017Z,17.50
2018-01-02T07:15:27.539Z,16.43
2018-01-02T07:17:55.337Z,18.03
2018-01-02T07:20:22.892Z,15.50
2018-01-02T07:22:50.440Z,17.30
2018-01-02T07:25:18.061Z,17.90
2018-01-02T07:27:45.578Z,17.97
2018-01-02T07:30:13.142Z,16.30
2018-01-02T07:32:40.753Z,14.60
2018-01-02T07:35:08.308Z,15.10
2018-01-02T07:37:35.840Z,16.90
2018-01-02T07:40:03.552Z,15.17
2018-01-02T07:42:31.071Z,13.63
2018-01-02T07:44:58.592Z,16.43
2018-01-02T07:47:26.138Z,16.90
2018-01-02T07:49:53.731Z,16.73
2018-01-02T07:52:21.285Z,16.10
2018-01-02T07:54:48.817Z,14.20
2018-01-02T07:57:16.367Z,15.67
2018-01-02T07:59:43.938Z,17.83
2018-01-02T08:02:11.526Z,17.27
2018-01-02T08:04:39.172Z,17.93
2018-01-02T08:07:06.789Z,17.33
2018-01-02T08:09:34.314Z,14.97
2018-01-02T08:12:01.903Z,18.10
2018-01-02T08:14:29.523Z,17.40
2018-01-02T08:16:57.081Z,17.50
2018-01-02T08:19:24.801Z,16.83
2018-01-02T08:21:52.394Z,16.37
2018-01-02T08:24:19.910Z,16.13
2018-01-02T08:26:47.451Z,13.60
2018-01-02T08:29:15.030Z,12.60
2018-01-02T08:31:42.638Z,13.63
2018-01-02T08:34:10.247Z,11.93
2018-01-02T08:36:37.802Z,13.37
2018-01-02T08:39:05.413Z,11.17
2018-01-02T08:41:32.969Z,12.63
2018-01-02T08:44:00.490Z,13.83
2018-01-02T08:46:28.060Z,10.20
2018-01-02T08:48:55.894Z,12.27
2018-01-02T08:51:23.414Z,10.73
2018-01-02T08:53:50.939Z,10.13
2018-01-02T08:56:18.520Z,10.57
2018-01-02T08:58:46.090Z,10.93
2018-01-02T09:01:13.713Z,13.80
2018-01-02T09:03:42.241Z,8.33
2018-01-02T09:06:09.750Z,9.83
2018-01-02T09:08:37.345Z,9.30
2018-01-02T09:11:04.909Z,10.37
2018-01-02T09:13:38.138Z,8.60
2018-01-02T09:16:05.680Z,9.43
2018-01-02T09:18:34.674Z,9.43
2018-01-02T09:21:02.358Z,9.23
2018-01-02T09:23:29.948Z,9.00
2018-01-02T09:25:57.524Z,7.07
2018-01-02T09:28:25.077Z,7.90
2018-01-02T09:30:52.628Z,7.60
2018-01-02T09:33:20.234Z,8.70
2018-01-02T09:35:47.752Z,7.53
2018-01-02T09:38:15.338Z,10.20
2018-01-02T09:40:42.898Z,7.90
2018-01-02T09:43:10.445Z,8.70
2018-01-02T09:45:38.004Z,6.83
2018-01-02T09:48:05.574Z,7.53
2018-01-02T09:50:33.092Z,8.53
2018-01-02T09:53:00.618Z,7.37
2018-01-02T09:55:28.180Z,6.80
2018-01-02T09:57:55.727Z,7.50
2018-01-02T10:00:23.269Z,6.53
2018-01-02T10:02:50.885Z,6.00
2018-01-02T10:05:18.395Z,6.43
2018-01-02T10:07:45.929Z,6.87
2018-01-02T10:10:13.497Z,5.23
2018-01-02T10:12:41.048Z,7.27
2018-01-02T10:15:08.602Z,6.53
2018-01-02T10:17:36.413Z,6.97
2018-01-02T10:20:03.993Z,5.10
2018-01-02T10:22:31.506Z,4.90
2018-01-02T10:24:59.081Z,5.27
2018-01-02T10:27:26.592Z,4.63
2018-01-02T10:29:54.187Z,4.80
2018-01-02T10:32:21.705Z,5.23
2018-01-02T10:34:49.309Z,4.53
2018-01-02T10:37:16.994Z,4.83
2018-01-02T10:39:44.514Z,5.00
2018-01-02T10:42:12.063Z,4.13
2018-01-02T10:44:39.596Z,3.77
2018-01-02T10:47:07.198Z,3.03
2018-01-02T10:49:34.740Z,3.70
2018-01-02T10:52:02.276Z,4.53
2018-01-02T10:54:29.846Z,3.20
2018-01-02T10:56:57.417Z,3.77
2018-01-02T10:59:24.992Z,4.30
2018-01-02T11:01:52.496Z,4.33
2018-01-02T11:04:20.028Z,3.23
2018-01-02T11:06:47.874Z,3.10
2018-01-02T11:09:15.416Z,3.43
2018-01-02T11:11:48.507Z,3.47
2018-01-02T11:14:21.609Z,3.40
2018-01-02T11:16:49.197Z,3.90
2018-01-02T11:19:16.786Z,4.30
2018-01-02T11:21:44.333Z,5.10
2018-01-02T11:24:11.954Z,3.63
2018-01-02T11:26:39.507Z,4.57
2018-01-02T11:29:07.191Z,6.40
2018-01-02T11:31:34.863Z,3.80
2018-01-02T11:34:02.460Z,3.87
2018-01-02T11:36:29.976Z,3.27
2018-01-02T11:38:57.530Z,3.63
2018-01-02T11:41:25.128Z,3.80
2018-01-02T11:43:52.653Z,4.03
2018-01-02T11:46:20.385Z,3.90
2018-01-02T11:48:48.084Z,3.90
2018-01-02T11:51:15.637Z,4.40
2018-01-02T11:53:43.172Z,3.60
2018-01-02T11:56:10.768Z,4.23
2018-01-02T11:58:38.312Z,3.67
2018-01-02T12:01:05.865Z,4.00
2018-01-02T12:03:33.436Z,3.20
2018-01-02T12:06:00.989Z,3.83
2018-01-02T12:08:28.562Z,3.30
2018-01-02T12:10:56.153Z,3.33
2018-01-02T12:13:23.700Z,3.50
2018-01-02T12:15:51.244Z,4.83
2018-01-02T12:18:18.820Z,3.30
2018-01-02T12:20:46.425Z,3.30
2018-01-02T12:23:14.038Z,4.23
2018-01-02T12:25:41.576Z,4.03
2018-01-02T12:28:09.095Z,4.20
2018-01-02T12:30:36.692Z,4.50
2018-01-02T12:33:04.252Z,4.23
2018-01-02T12:35:31.870Z,4.40
2018-01-02T12:37:59.477Z,4.50
2018-01-02T12:40:26.989Z,5.60
2018-01-02T12:42:54.529Z,5.83
2018-01-02T12:45:22.197Z,5.50
2018-01-02T12:47:49.759Z,5.47
2018-01-02T12:50:17.326Z,4.67
2018-01-02T12:52:45.089Z,5.43
2018-01-02T12:55:12.653Z,5.53
2018-01-02T12:57:40.309Z,4.60
2018-01-02T13:00:07.896Z,5.10
2018-01-02T13:02:35.432Z,5.63
2018-01-02T13:05:03.007Z,6.60
2018-01-02T13:07:30.573Z,4.90
2018-01-02T13:09:58.101Z,5.43
2018-01-02T13:12:25.629Z,5.97
2018-01-02T13:14:53.201Z,5.83
2018-01-02T13:17:20.708Z,6.00
2018-01-02T13:19:48.276Z,6.43
2018-01-02T13:22:15.864Z,5.97
2018-01-02T13:24:43.413Z,6.07
2018-01-02T13:27:10.956Z,6.87
2018-01-02T13:29:38.532Z,6.53
2018-01-02T13:32:06.076Z,6.57
2018-01-02T13:34:33.632Z,6.70
2018-01-02T13:37:01.302Z,7.23
2018-01-02T13:39:28.869Z,3.80
2018-01-02T13:41:56.418Z,6.30
2018-01-02T13:44:24.020Z,5.70
2018-01-02T13:46:51.565Z,5.60
2018-01-02T13:49:19.146Z,6.73
2018-01-02T13:51:46.712Z,5.07
2018-01-02T13:54:14.233Z,5.50
2018-01-02T13:56:41.782Z,6.93
2018-01-02T13:59:09.405Z,5.47
2018-01-02T14:01:36.924Z,6.20
2018-01-02T14:04:04.500Z,6.13
2018-01-02T14:06:32.050Z,5.33
2018-01-02T14:08:59.627Z,6.13
2018-01-02T14:11:27.172Z,7.07
2018-01-02T14:13:54.714Z,7.23
2018-01-02T14:16:22.370Z,6.13
2018-01-02T14:18:49.918Z,6.90
2018-01-02T14:21:17.470Z,5.13
2018-01-02T14:23:45.068Z,5.40
2018-01-02T14:26:12.716Z,6.20
2018-01-02T14:28:40.290Z,5.40
2018-01-02T14:31:07.876Z,5.70
2018-01-02T14:33:35.399Z,5.50
2018-01-02T14:36:02.989Z,5.20
2018-01-02T14:38:30.494Z,4.83
2018-01-02T14:40:58.099Z,5.23
2018-01-02T14:43:25.746Z,5.70
2018-01-02T14:45:53.287Z,5.00
2018-01-02T14:48:20.833Z,6.10
2018-01-02T14:50:48.371Z,7.10
2018-01-02T14:53:15.897Z,5.80
2018-01-02T14:55:43.641Z,5.50
2018-01-02T14:58:11.181Z,6.10
2018-01-02T15:00:38.994Z,5.77
2018-01-02T15:03:06.663Z,6.70
2018-01-02T15:05:34.212Z,5.20
2018-01-02T15:08:01.792Z,6.20
2018-01-02T15:10:29.319Z,6.40
2018-01-02T15:12:56.889Z,6.03
2018-01-02T15:15:24.438Z,5.80
2018-01-02T15:17:52.025Z,6.33
2018-01-02T15:20:19.572Z,6.80
2018-01-02T15:22:47.117Z,6.17
2018-01-02T15:25:14.706Z,6.50
2018-01-02T15:27:42.222Z,5.30
2018-01-02T15:30:09.867Z,7.80
2018-01-02T15:32:37.439Z,7.60
2018-01-02T15:35:04.976Z,8.40
2018-01-02T15:37:32.587Z,6.93
2018-01-02T15:40:00.175Z,6.80
2018-01-02T15:42:27.836Z,5.90
2018-01-02T15:44:55.389Z,7.23
2018-01-02T15:47:23.022Z,7.20
2018-01-02T15:49:50.548Z,6.93
2018-01-02T15:52:18.096Z,6.90
2018-01-02T15:54:45.669Z,8.23
2018-01-02T15:57:13.213Z,7.00
2018-01-02T15:59:40.831Z,7.90
2018-01-02T16:02:08.418Z,7.27
2018-01-02T16:04:35.993Z,7.40
2018-01-02T16:07:03.536Z,7.00
2018-01-02T16:09:31.087Z,7.60
2018-01-02T16:11:58.714Z,8.10
2018-01-02T16:14:26.258Z,7.37
2018-01-02T16:16:53.800Z,9.40
2018-01-02T16:19:21.364Z,9.37
2018-01-02T16:21:48.907Z,8.83
2018-01-02T16:24:16.465Z,10.00
2018-01-02T16:26:44.036Z,10.00
2018-01-02T16:29:11.596Z,10.30
2018-01-02T16:31:39.118Z,11.77
2018-01-02T16:34:06.669Z,10.90
2018-01-02T16:36:34.216Z,11.80
2018-01-02T16:39:01.763Z,13.27
2018-01-02T16:41:29.303Z,12.93
2018-01-02T16:43:56.871Z,14.87
2018-01-02T16:46:24.458Z,13.27
2018-01-02T16:48:52.007Z,11.17
2018-01-02T16:51:19.577Z,13.87
2018-01-02T16:53:47.086Z,13.60
2018-01-02T16:56:14.643Z,11.90
2018-01-02T16:58:42.226Z,13.07
2018-01-02T17:01:09.768Z,12.93
2018-01-02T17:03:37.274Z,9.90
2018-01-02T17:06:04.853Z,8.53
2018-01-02T17:08:32.412Z,9.13
2018-01-02T17:11:00.055Z,8.13
2018-01-02T17:13:27.589Z,8.30
2018-01-02T17:15:55.190Z,7.73
2018-01-02T17:18:22.741Z,8.03
2018-01-02T17:20:50.259Z,6.80
2018-01-02T17:23:17.851Z,11.23
2018-01-02T17:25:45.378Z,7.90
2018-01-02T17:28:12.899Z,7.60
2018-01-02T17:30:40.496Z,7.97
2018-01-02T17:33:08.024Z,7.83
2018-01-02T17:35:35.553Z,8.87
2018-01-02T17:38:03.127Z,6.67
2018-01-02T17:40:30.934Z,7.97
2018-01-02T17:42:58.458Z,8.60
2018-01-02T17:45:26.089Z,8.00
2018-01-02T17:47:53.628Z,7.80
2018-01-02T17:50:21.270Z,6.70
2018-01-02T17:52:48.896Z,7.53
2018-01-02T17:55:16.414Z,6.63
2018-01-02T17:57:43.951Z,7.70
2018-01-02T18:00:11.592Z,7.20
2018-01-02T18:02:39.123Z,6.13
2018-01-02T18:05:06.630Z,6.10
2018-01-02T18:07:34.197Z,5.50
2018-01-02T18:10:01.753Z,4.77
2018-01-02T18:12:29.273Z,4.80
2018-01-02T18:14:56.883Z,5.33
2018-01-02T18:17:24.478Z,5.40
2018-01-02T18:19:52.040Z,5.40
2018-01-02T18:22:19.615Z,4.90
2018-01-02T18:24:47.180Z,4.77
2018-01-02T18:27:14.683Z,4.47
2018-01-02T18:29:42.303Z,3.47
2018-01-02T18:32:09.856Z,5.20
2018-01-02T18:34:37.406Z,5.07
2018-01-02T18:37:04.992Z,4.40
2018-01-02T18:39:32.542Z,5.10
2018-01-02T18:42:00.109Z,4.60
2018-01-02T18:44:27.936Z,3.57
2018-01-02T18:46:55.556Z,4.77
2018-01-02T18:49:23.101Z,4.40
2018-01-02T18:51:50.717Z,5.10
2018-01-02T18:54:18.345Z,5.43
2018-01-02T18:56:45.867Z,6.30
2018-01-02T18:59:13.464Z,5.73
2018-01-02T19:01:41.003Z,4.97
2018-01-02T19:04:08.564Z,4.80
2018-01-02T19:06:36.179Z,6.30
2018-01-02T19:09:03.802Z,4.60
2018-01-02T19:11:31.353Z,4.07
2018-01-02T19:13:58.915Z,4.60
2018-01-02T19:16:26.423Z,4.63
2018-01-02T19:18:53.927Z,6.03
2018-01-02T19:21:21.496Z,4.50
2018-01-02T19:23:49.207Z,5.57
2018-01-02T19:26:16.846Z,5.77
2018-01-02T19:28:44.385Z,5.80
2018-01-02T19:31:12.006Z,5.47
2018-01-02T19:33:39.810Z,6.30
2018-01-02T19:36:07.588Z,4.50
2018-01-02T19:38:35.189Z,4.10
2018-01-02T19:41:03.042Z,16.37
2018-01-02T19:43:30.811Z,21.83
2018-01-02T19:45:58.697Z,38.67
2018-01-02T19:48:26.571Z,41.33
2018-01-02T19:50:55.267Z,32.23
2018-01-02T19:53:23.007Z,45.90
2018-01-02T19:55:50.900Z,16.20
2018-01-02T19:58:18.819Z,33.80
2018-01-02T20:00:46.595Z,10.90
2018-01-02T20:03:14.571Z,17.60
2018-01-02T20:05:42.165Z,15.70
2018-01-02T20:08:09.769Z,9.30
2018-01-02T20:10:37.711Z,8.20
2018-01-02T20:13:05.568Z,10.83
2018-01-02T20:15:33.566Z,9.30
2018-01-02T20:18:01.423Z,9.63
2018-01-02T20:20:29.221Z,9.17
2018-01-02T20:22:57.114Z,8.53
2018-01-02T20:25:24.988Z,7.10
2018-01-02T20:27:52.871Z,9.53
2018-01-02T20:30:20.649Z,9.00
2018-01-02T20:32:48.286Z,9.63
2018-01-02T20:35:16.098Z,11.57
2018-01-02T20:37:43.686Z,29.03
2018-01-02T20:40:12.072Z,15.00
2018-01-02T20:42:39.593Z,11.00
2018-01-02T20:45:07.212Z,11.67
2018-01-02T20:47:34.844Z,10.27
2018-01-02T20:50:02.575Z,10.50
2018-01-02T20:52:30.224Z,11.40
2018-01-02T20:54:57.776Z,19.70
2018-01-02T20:57:25.338Z,18.73
2018-01-02T20:59:52.945Z,11.63
2018-01-02T21:02:20.647Z,32.37
2018-01-02T21:04:48.179Z,16.50
2018-01-02T21:07:15.738Z,15.43
2018-01-02T21:09:43.305Z,12.50
2018-01-02T21:12:10.921Z,13.33
2018-01-02T21:14:38.593Z,10.17
2018-01-02T21:17:06.125Z,11.90
2018-01-02T21:19:33.678Z,15.93
2018-01-02T21:22:01.252Z,13.27
2018-01-02T21:24:28.996Z,14.90
2018-01-02T21:26:56.775Z,16.30
2018-01-02T21:29:24.329Z,12.70
2018-01-02T21:31:52.024Z,13.90
2018-01-02T21:34:19.602Z,15.20
2018-01-02T21:36:47.115Z,15.10
2018-01-02T21:39:14.740Z,16.30
2018-01-02T21:41:42.348Z,15.60
2018-01-02T21:44:09.994Z,12.13
2018-01-02T21:46:37.516Z,13.90
2018-01-02T21:49:05.131Z,14.60
2018-01-02T21:51:32.706Z,15.60
2018-01-02T21:54:00.272Z,15.07
2018-01-02T21:56:27.811Z,11.53
2018-01-02T21:58:55.322Z,12.73
2018-01-02T22:01:22.912Z,14.40
2018-01-02T22:03:50.480Z,12.97
2018-01-02T22:06:18.005Z,14.57
2018-01-02T22:08:45.603Z,13.77
2018-01-02T22:11:13.161Z,14.13
2018-01-02T22:13:40.711Z,12.23
2018-01-02T22:16:08.314Z,12.73
2018-01-02T22:18:36.120Z,13.47
2018-01-02T22:21:03.677Z,13.00
2018-01-02T22:23:31.251Z,10.87
2018-01-02T22:25:58.821Z,10.67
2018-01-02T22:28:26.380Z,10.93
2018-01-02T22:30:53.928Z,10.30
2018-01-02T22:33:21.545Z,9.83
2018-01-02T22:35:49.060Z,9.83
2018-01-02T22:38:16.604Z,10.50
2018-01-02T22:40:44.164Z,9.53
2018-01-02T22:43:11.697Z,9.50
2018-01-02T22:45:39.227Z,5.40
2018-01-02T22:48:06.842Z,8.83
2018-01-02T22:50:34.379Z,7.50
2018-01-02T22:53:01.962Z,6.77
2018-01-02T22:55:29.503Z,7.00
2018-01-02T22:57:57.052Z,7.90
2018-01-02T23:00:24.595Z,8.20
2018-01-02T23:02:52.192Z,9.03
2018-01-02T23:05:19.741Z,7.40
2018-01-02T23:07:47.480Z,9.63
2018-01-02T23:10:15.011Z,7.70
2018-01-02T23:12:42.543Z,8.20
2018-01-02T23:15:10.125Z,8.23
2018-01-02T23:17:37.635Z,9.43
2018-01-02T23:20:05.445Z,9.60
2018-01-02T23:22:33.028Z,7.90
2018-01-02T23:25:00.788Z,8.60
2018-01-02T23:27:28.368Z,8.50
2018-01-02T23:29:55.880Z,7.37
2018-01-02T23:32:23.439Z,9.13
2018-01-02T23:34:50.983Z,8.23
2018-01-02T23:37:18.533Z,8.70
2018-01-02T23:39:46.124Z,9.50
2018-01-02T23:42:13.667Z,7.60
2018-01-02T23:44:41.192Z,9.67
2018-01-02T23:47:08.754Z,7.43
2018-01-02T23:49:36.263Z,8.80
2018-01-02T23:52:03.888Z,8.53
2018-01-02T23:54:31.530Z,8.17
2018-01-02T23:56:59.109Z,9.20
2018-01-02T23:59:26.619Z,8.73
